Stations météo

réclame
Mon MeteoGroup
Trento, Italie (16023): Température de l'air & dewpoint: 14.06.2018 17:00:00 - 20.06.2018 17:00:00 (CEST)Trento, Italie (16023): Vitesse du vent: 14.06.2018 17:00:00 - 20.06.2018 17:00:00 (CEST)Trento, Italie (16023): Direction du vent: 14.06.2018 17:00:00 - 20.06.2018 17:00:00 (CEST)Trento, Italie (16023): reduced air pressure: 14.06.2018 17:00:00 - 20.06.2018 17:00:00 (CEST)Trento, Italie (16023): Quantités de précipitations: 14.06.2018 17:00:00 - 20.06.2018 17:00:00 (CEST)
Date & Time tt [°C] td [°C] ff [km/h] ff [knt] dd ppp [hPa] rr [mm]
20.06.2018 17:00:00 - - - - - - -
20.06.2018 16:00:00 32,2 17,3 - - - 1017,4 -
20.06.2018 15:00:00 31,6 17,1 - - - 1018,0 -
20.06.2018 14:00:00 31,3 17,2 - - - 1018,6 0,0
20.06.2018 13:00:00 30,5 17,2 - - - 1019,4 -
20.06.2018 12:00:00 29,0 17,2 - - - 1020,1 -
20.06.2018 11:00:00 - - - - - - -
20.06.2018 10:00:00 25,5 15,7 - - - 1021,5 -
20.06.2018 09:00:00 23,6 15,3 5 3 N 1022,0 -
20.06.2018 08:00:00 21,5 17,0 - - - 1022,3 0,0
20.06.2018 07:00:00 21,4 15,8 - - - 1022,0 -
20.06.2018 06:00:00 20,4 17,0 - - - 1021,7 -
20.06.2018 05:00:00 19,8 17,1 - - - 1021,4 -
20.06.2018 04:00:00 19,4 15,8 4 2 N 1021,4 -
20.06.2018 03:00:00 20,3 16,3 - - - 1021,5 -
20.06.2018 02:00:00 20,8 16,1 4 2 E 1021,5 0,0
20.06.2018 01:00:00 21,5 15,9 4 2 NE 1021,3 -
20.06.2018 00:00:00 22,4 14,2 - - - 1020,8 -
19.06.2018 23:00:00 25,5 15,1 - - - 1020,1 -
19.06.2018 22:00:00 26,5 15,2 - - - 1019,1 -
19.06.2018 21:00:00 27,7 15,6 - - - 1018,0 -
19.06.2018 20:00:00 28,4 16,0 - - - 1017,3 0,0
19.06.2018 19:00:00 30,5 - - - - - -
19.06.2018 18:00:00 31,4 - - - - 1016,3 -
19.06.2018 17:00:00 32,2 15,7 - - - 1016,3 -
19.06.2018 16:00:00 32,2 - - - - - -
19.06.2018 15:00:00 - - - - - - -
19.06.2018 14:00:00 31,0 - - - - - 0,0
19.06.2018 13:00:00 29,9 - - - - 1018,7 -
19.06.2018 12:00:00 28,3 13,4 - - - 1019,7 -
19.06.2018 11:00:00 26,1 12,5 - - - 1020,6 -
19.06.2018 10:00:00 24,4 12,3 - - - 1021,3 -
19.06.2018 09:00:00 22,6 12,2 - - - 1021,8 -
19.06.2018 08:00:00 17,8 15,2 - - - 1022,0 0,0
19.06.2018 07:00:00 15,4 12,7 4 2 E 1022,1 -
19.06.2018 06:00:00 15,1 12,0 4 2 E 1021,7 -
19.06.2018 05:00:00 15,6 12,8 - - - 1021,2 -
19.06.2018 04:00:00 16,0 13,0 5 3 ENE 1020,9 -
19.06.2018 03:00:00 16,6 13,4 5 3 NE 1020,5 -
19.06.2018 02:00:00 17,5 13,9 4 2 ENE 1020,3 0,0
19.06.2018 01:00:00 - - - - - - -
19.06.2018 00:00:00 20,4 15,3 - - - 1019,5 -
18.06.2018 23:00:00 21,2 15,2 - - - 1018,8 -
18.06.2018 22:00:00 23,1 14,6 - - - 1017,6 -
18.06.2018 21:00:00 26,3 14,3 - - - 1016,2 -
18.06.2018 20:00:00 27,9 14,8 - - - 1015,3 0,0
18.06.2018 19:00:00 29,2 16,7 - - - 1014,5 -
18.06.2018 18:00:00 29,5 16,3 - - - 1014,2 -
18.06.2018 17:00:00 30,7 16,7 - - - 1014,2 -
18.06.2018 16:00:00 30,2 - - - - 1014,4 -
18.06.2018 15:00:00 30,9 - - - - 1014,6 -
18.06.2018 14:00:00 30,6 15,4 - - - 1014,8 0,0
18.06.2018 13:00:00 28,1 17,9 - - - 1015,7 -
18.06.2018 12:00:00 26,2 16,9 - - - 1016,5 -
18.06.2018 11:00:00 24,2 18,8 4 2 WSW 1017,3 -
18.06.2018 10:00:00 22,5 19,2 - - - 1017,8 -
18.06.2018 09:00:00 20,3 18,9 - - - 1018,4 -
18.06.2018 08:00:00 18,1 17,7 8 4 E 1018,6 0,0
18.06.2018 07:00:00 18,0 17,3 8 4 S 1018,7 -
18.06.2018 06:00:00 17,9 17,2 5 3 SE 1017,9 -
18.06.2018 05:00:00 18,8 16,9 5 3 E 1016,5 -
18.06.2018 04:00:00 19,4 15,0 0 0 N 1015,8 -
18.06.2018 03:00:00 19,6 14,3 4 2 E 1015,5 -
18.06.2018 02:00:00 20,1 14,8 5 3 ESE 1015,6 0,0
18.06.2018 01:00:00 20,5 13,8 0 0 N 1015,4 -
18.06.2018 00:00:00 21,1 12,9 - - - 1015,1 -
17.06.2018 23:00:00 23,8 13,9 - - - 1014,2 -
17.06.2018 22:00:00 25,2 14,0 - - - 1013,2 -
17.06.2018 21:00:00 26,7 14,1 - - - 1012,3 -
17.06.2018 20:00:00 27,5 14,4 - - - 1011,8 0,0
17.06.2018 19:00:00 29,4 15,5 - - - 1011,0 -
17.06.2018 18:00:00 29,2 15,7 - - - 1011,0 -
17.06.2018 17:00:00 31,6 15,5 - - - 1010,7 -
17.06.2018 16:00:00 33,3 11,8 - - - 1010,8 -
17.06.2018 15:00:00 32,8 - - - - 1011,6 -
17.06.2018 14:00:00 31,6 12,5 - - - 1012,2 0,0
17.06.2018 13:00:00 29,8 - - - - 1012,8 -
17.06.2018 12:00:00 27,5 - - - - - -
17.06.2018 11:00:00 25,7 15,6 - - - 1014,2 -
17.06.2018 10:00:00 24,1 15,0 - - - 1015,0 -
17.06.2018 09:00:00 21,8 16,7 - - - 1015,5 -
17.06.2018 08:00:00 18,7 17,7 4 2 E 1015,5 0,0
17.06.2018 07:00:00 16,6 15,1 4 2 NNE 1015,4 -
17.06.2018 06:00:00 16,3 14,2 2 1 ESE 1015,3 -
17.06.2018 05:00:00 16,3 13,7 5 3 ENE 1015,1 -
17.06.2018 04:00:00 17,3 14,1 - - - 1015,1 -
17.06.2018 03:00:00 18,1 14,9 - - - 1014,9 -
17.06.2018 02:00:00 18,2 13,6 - - - 1014,7 0,0
17.06.2018 01:00:00 19,2 13,5 0 0 N 1014,5 -
17.06.2018 00:00:00 20,4 13,0 - - - 1014,0 -
16.06.2018 23:00:00 23,1 13,5 - - - 1013,3 -
16.06.2018 22:00:00 24,2 13,3 - - - 1012,4 -
16.06.2018 21:00:00 25,5 - - - - - -
16.06.2018 20:00:00 - - - - - - 0,0
16.06.2018 19:00:00 - - - - - - -
16.06.2018 18:00:00 - - - - - - -
16.06.2018 17:00:00 - - - - - - -
16.06.2018 16:00:00 - - - - - - -
16.06.2018 15:00:00 - - - - - - -
16.06.2018 14:00:00 - - - - - - 0,0
16.06.2018 13:00:00 - - - - - - -
16.06.2018 12:00:00 - - - - - - -
16.06.2018 11:00:00 - - - - - - -
16.06.2018 10:00:00 - - - - - - -
16.06.2018 09:00:00 - - - - - - -
16.06.2018 08:00:00 17,3 16,1 - - - 1014,7 0,0
16.06.2018 07:00:00 15,5 14,0 - - - 1015,0 -
16.06.2018 06:00:00 14,6 12,8 - - - 1014,9 -
16.06.2018 05:00:00 14,8 - - - - 1014,8 -
16.06.2018 04:00:00 15,1 12,4 - - - 1014,6 -
16.06.2018 03:00:00 - - - - - - -
16.06.2018 02:00:00 - - - - - - 0,0
16.06.2018 01:00:00 - - - - - - -
16.06.2018 00:00:00 - - - - - - -
15.06.2018 23:00:00 - - - - - - -
15.06.2018 22:00:00 - - - - - - -
15.06.2018 21:00:00 - - - - - - -
15.06.2018 20:00:00 - - - - - - 0,0
15.06.2018 19:00:00 - - - - - - -
15.06.2018 18:00:00 - - - - - - -
15.06.2018 17:00:00 - - - - - - -
15.06.2018 16:00:00 - - - - - - -
15.06.2018 15:00:00 - - - - - - -
15.06.2018 14:00:00 - - - - - - 0,0
15.06.2018 13:00:00 - - - - - - -
15.06.2018 12:00:00 - - - - - - -
15.06.2018 11:00:00 - - - - - - -
15.06.2018 10:00:00 - - - - - - -
15.06.2018 09:00:00 - - - - - - -
15.06.2018 08:00:00 - - - - - - 0,0
15.06.2018 07:00:00 - - - - - - -
15.06.2018 06:00:00 13,8 - - - - - -
15.06.2018 05:00:00 - - - - - - -
15.06.2018 04:00:00 - - - - - - -
15.06.2018 03:00:00 - - - - - - -
15.06.2018 02:00:00 - - - - - - -
15.06.2018 01:00:00 17,5 - - - - 1012,0 -
15.06.2018 00:00:00 - - - - - - -
14.06.2018 23:00:00 - - - - - - -
14.06.2018 22:00:00 - - - - - - -
14.06.2018 21:00:00 - - - - - - -
14.06.2018 20:00:00 - - - - - - 0,0
14.06.2018 19:00:00 - - - - - - -
14.06.2018 18:00:00 - - - - - - -
14.06.2018 17:00:00 - - - - - - -

tt = Température de l'air
td = dewpoint
ff = Vitesse du vent
dd = Direction du vent
ppp = reduced air pressure
rr = Quantités de précipitations

stations d'obs. à proximité